createdAt,value
2023-05-11T00:00:33.576Z,25.27
2023-05-11T00:03:00.028Z,24.67
2023-05-11T00:05:26.565Z,25.73
2023-05-11T00:07:52.896Z,27.10
2023-05-11T00:10:19.549Z,25.10
2023-05-11T00:12:46.053Z,26.67
2023-05-11T00:15:12.401Z,27.63
2023-05-11T00:17:38.754Z,26.33
2023-05-11T00:20:06.165Z,26.87
2023-05-11T00:22:32.491Z,26.83
2023-05-11T00:24:58.804Z,26.80
2023-05-11T00:27:25.500Z,26.47
2023-05-11T00:29:51.998Z,27.20
2023-05-11T00:32:18.338Z,28.17
2023-05-11T00:34:44.706Z,28.40
2023-05-11T00:37:16.252Z,27.50
2023-05-11T00:39:42.686Z,28.33
2023-05-11T00:42:10.705Z,28.70
2023-05-11T00:44:37.115Z,27.57
2023-05-11T00:47:03.831Z,27.43
2023-05-11T00:49:31.085Z,28.47
2023-05-11T00:51:57.800Z,25.00
2023-05-11T00:54:24.668Z,23.93
2023-05-11T00:56:51.662Z,23.83
2023-05-11T00:59:18.564Z,23.23
2023-05-11T01:01:45.024Z,26.30
2023-05-11T01:04:12.667Z,28.57
2023-05-11T01:06:51.532Z,28.57
2023-05-11T01:09:27.404Z,28.67
2023-05-11T01:12:00.453Z,27.13
2023-05-11T01:14:38.688Z,26.33
2023-05-11T01:17:20.529Z,25.93
2023-05-11T01:19:51.463Z,28.83
2023-05-11T01:22:37.864Z,29.03
2023-05-11T01:25:29.903Z,29.87
2023-05-11T01:28:23.068Z,27.70
2023-05-11T01:31:01.704Z,31.33
2023-05-11T01:33:33.612Z,30.13
2023-05-11T01:36:05.590Z,30.90
2023-05-11T01:38:35.706Z,30.87
2023-05-11T01:41:09.788Z,31.73
2023-05-11T01:43:37.471Z,32.47
2023-05-11T01:46:09.158Z,41.10
2023-05-11T01:48:40.542Z,39.90
2023-05-11T01:51:08.858Z,37.30
2023-05-11T01:53:37.667Z,36.67
2023-05-11T01:56:06.227Z,36.67
2023-05-11T01:58:35.943Z,37.97
2023-05-11T02:01:04.059Z,31.23
2023-05-11T02:03:36.738Z,31.43
2023-05-11T02:06:05.739Z,31.77
2023-05-11T02:08:33.795Z,32.20
2023-05-11T02:11:02.498Z,32.13
2023-05-11T02:13:30.348Z,31.43
2023-05-11T02:15:58.557Z,34.17
2023-05-11T02:18:25.151Z,36.50
2023-05-11T02:21:00.056Z,32.90
2023-05-11T02:23:27.742Z,30.67
2023-05-11T02:25:55.164Z,32.00
2023-05-11T02:28:21.664Z,33.80
2023-05-11T02:30:53.105Z,35.70
2023-05-11T02:33:26.292Z,36.13
2023-05-11T02:35:55.554Z,37.87
2023-05-11T02:38:30.834Z,39.17
2023-05-11T02:41:00.490Z,38.73
2023-05-11T02:43:33.578Z,40.37
2023-05-11T02:46:06.878Z,39.77
2023-05-11T02:48:41.157Z,38.37
2023-05-11T02:51:11.057Z,37.70
2023-05-11T02:53:45.329Z,39.07
2023-05-11T02:56:13.154Z,38.27
2023-05-11T02:58:39.562Z,39.43
2023-05-11T03:01:17.153Z,37.40
2023-05-11T03:03:43.809Z,40.17
2023-05-11T03:06:10.220Z,39.00
2023-05-11T03:08:37.438Z,38.03
2023-05-11T03:11:04.924Z,37.67
2023-05-11T03:13:32.457Z,38.27
2023-05-11T03:16:02.378Z,36.97
2023-05-11T03:18:32.189Z,36.10
2023-05-11T03:21:01.360Z,35.83
2023-05-11T03:23:29.250Z,35.97
2023-05-11T03:25:57.337Z,35.93
2023-05-11T03:28:26.658Z,34.13
2023-05-11T03:31:00.429Z,34.27
2023-05-11T03:33:26.854Z,34.87
2023-05-11T03:35:54.197Z,35.23
2023-05-11T03:38:24.371Z,33.40
2023-05-11T03:40:53.469Z,33.70
2023-05-11T03:43:21.718Z,32.70
2023-05-11T03:45:53.887Z,35.60
2023-05-11T03:48:23.713Z,32.47
2023-05-11T03:50:51.776Z,32.23
2023-05-11T03:53:19.048Z,33.27
2023-05-11T03:55:45.471Z,32.83
2023-05-11T03:58:11.915Z,32.70
2023-05-11T04:00:39.974Z,33.33
2023-05-11T04:03:07.787Z,34.27
2023-05-11T04:05:34.404Z,34.70
2023-05-11T04:08:04.631Z,32.63
2023-05-11T04:10:30.966Z,34.17
2023-05-11T04:12:57.489Z,34.83
2023-05-11T04:15:23.932Z,33.00
2023-05-11T04:17:50.331Z,33.87
2023-05-11T04:20:17.039Z,33.60
2023-05-11T04:22:44.214Z,31.07
2023-05-11T04:25:10.719Z,32.23
2023-05-11T04:27:37.098Z,32.47
2023-05-11T04:30:04.212Z,34.43
2023-05-11T04:32:31.465Z,33.03
2023-05-11T04:34:57.985Z,33.23
2023-05-11T04:37:26.421Z,33.23
2023-05-11T04:39:53.126Z,32.80
2023-05-11T04:42:20.697Z,31.57
2023-05-11T04:44:54.259Z,31.73
2023-05-11T04:47:21.191Z,31.20
2023-05-11T04:49:48.332Z,30.07
2023-05-11T04:52:15.311Z,31.13
2023-05-11T04:54:44.633Z,29.87
2023-05-11T04:57:11.008Z,28.43
2023-05-11T04:59:37.495Z,28.30
2023-05-11T05:02:04.117Z,28.17
2023-05-11T05:04:30.855Z,27.87
2023-05-11T05:06:57.241Z,27.37
2023-05-11T05:09:23.579Z,27.97
2023-05-11T05:11:50.094Z,27.13
2023-05-11T05:14:16.450Z,26.90
2023-05-11T05:16:43.034Z,25.93
2023-05-11T05:19:12.798Z,26.93
2023-05-11T05:21:40.535Z,25.07
2023-05-11T05:24:10.932Z,25.30
2023-05-11T05:26:37.582Z,24.97
2023-05-11T05:29:05.358Z,25.17
2023-05-11T05:31:31.782Z,25.10
2023-05-11T05:33:58.423Z,28.00
2023-05-11T05:36:24.835Z,28.23
2023-05-11T05:38:51.745Z,30.37
2023-05-11T05:41:18.682Z,29.20
2023-05-11T05:43:45.486Z,28.47
2023-05-11T05:46:12.499Z,27.73
2023-05-11T05:48:38.908Z,28.53
2023-05-11T05:51:05.372Z,27.60
2023-05-11T05:53:31.769Z,27.47
2023-05-11T05:55:58.186Z,25.67
2023-05-11T05:58:24.597Z,25.67
2023-05-11T06:00:51.050Z,25.53
2023-05-11T06:03:17.519Z,23.73
2023-05-11T06:05:44.167Z,22.83
2023-05-11T06:08:11.637Z,21.37
2023-05-11T06:10:39.269Z,21.37
2023-05-11T06:13:08.054Z,20.50
2023-05-11T06:15:35.215Z,19.60
2023-05-11T06:18:08.611Z,19.57
2023-05-11T06:20:35.542Z,21.20
2023-05-11T06:23:03.871Z,19.37
2023-05-11T06:25:30.457Z,19.83
2023-05-11T06:27:56.995Z,20.47
2023-05-11T06:30:23.397Z,19.27
2023-05-11T06:32:52.361Z,18.13
2023-05-11T06:35:20.715Z,18.03
2023-05-11T06:37:47.101Z,18.83
2023-05-11T06:40:16.329Z,18.53
2023-05-11T06:42:43.147Z,19.40
2023-05-11T06:45:11.099Z,19.23
2023-05-11T06:47:41.556Z,20.20
2023-05-11T06:50:08.604Z,18.83
2023-05-11T06:52:37.370Z,19.60
2023-05-11T06:55:04.445Z,18.63
2023-05-11T06:57:30.778Z,18.80
2023-05-11T06:59:57.526Z,18.33
2023-05-11T07:02:24.193Z,18.47
2023-05-11T07:04:50.836Z,17.73
2023-05-11T07:07:17.277Z,18.30
2023-05-11T07:09:43.674Z,16.67
2023-05-11T07:12:10.126Z,17.50
2023-05-11T07:14:36.573Z,18.77
2023-05-11T07:17:03.654Z,16.43
2023-05-11T07:19:30.066Z,16.43
2023-05-11T07:21:56.424Z,15.93
2023-05-11T07:24:22.834Z,16.47
2023-05-11T07:26:50.655Z,16.93
2023-05-11T07:29:17.017Z,18.07
2023-05-11T07:31:43.962Z,17.77
2023-05-11T07:34:10.343Z,18.77
2023-05-11T07:36:36.761Z,19.43
2023-05-11T07:39:03.234Z,20.13
2023-05-11T07:41:29.654Z,18.80
2023-05-11T07:43:56.182Z,16.80
2023-05-11T07:46:22.650Z,16.40
2023-05-11T07:48:51.675Z,15.97
2023-05-11T07:51:24.094Z,15.43
2023-05-11T07:53:50.490Z,16.90
2023-05-11T07:56:17.132Z,15.77
2023-05-11T07:58:43.592Z,16.23
2023-05-11T08:01:09.974Z,16.90
2023-05-11T08:03:36.965Z,17.83
2023-05-11T08:06:03.795Z,18.03
2023-05-11T08:08:30.565Z,17.53
2023-05-11T08:10:56.920Z,19.07
2023-05-11T08:13:23.288Z,18.30
2023-05-11T08:15:49.736Z,20.53
2023-05-11T08:18:16.384Z,18.67
2023-05-11T08:20:42.729Z,19.93
2023-05-11T08:23:10.694Z,16.63
2023-05-11T08:25:37.035Z,15.37
2023-05-11T08:28:03.499Z,14.87
2023-05-11T08:30:29.930Z,18.27
2023-05-11T08:32:59.076Z,19.80
2023-05-11T08:35:25.987Z,18.40
2023-05-11T08:37:52.340Z,16.93
2023-05-11T08:40:21.499Z,21.83
2023-05-11T08:42:49.849Z,20.57
2023-05-11T08:45:17.731Z,20.47
2023-05-11T08:47:45.311Z,22.03
2023-05-11T08:50:11.988Z,18.30
2023-05-11T08:52:38.448Z,17.40
2023-05-11T08:55:05.258Z,17.67
2023-05-11T08:57:34.089Z,18.00
2023-05-11T09:00:02.309Z,18.17
2023-05-11T09:02:29.311Z,15.70
2023-05-11T09:04:56.007Z,14.07
2023-05-11T09:07:24.383Z,14.03
2023-05-11T09:09:50.717Z,15.83
2023-05-11T09:12:17.134Z,14.23
2023-05-11T09:14:43.693Z,14.50
2023-05-11T09:17:10.137Z,15.37
2023-05-11T09:19:36.626Z,15.93
2023-05-11T09:22:05.265Z,16.77
2023-05-11T09:24:32.264Z,14.50
2023-05-11T09:27:07.277Z,17.47
2023-05-11T09:29:33.613Z,16.70
2023-05-11T09:31:59.979Z,19.60
2023-05-11T09:34:26.622Z,20.07
2023-05-11T09:36:55.064Z,22.13
2023-05-11T09:42:15.324Z,16.30
2023-05-11T09:44:43.274Z,15.60
2023-05-11T09:47:19.186Z,13.73
2023-05-11T09:49:47.523Z,13.93
2023-05-11T09:52:18.499Z,13.00
2023-05-11T09:54:50.820Z,13.43
2023-05-11T09:57:30.576Z,13.40
2023-05-11T09:59:59.207Z,12.80
2023-05-11T10:02:27.459Z,14.53
2023-05-11T10:04:55.803Z,13.47
2023-05-11T10:07:26.367Z,10.57
2023-05-11T10:10:01.637Z,10.63
2023-05-11T10:12:28.895Z,11.50
2023-05-11T10:15:08.097Z,12.20
2023-05-11T10:17:35.619Z,12.13
2023-05-11T10:20:04.102Z,12.50
2023-05-11T10:22:31.268Z,11.00
2023-05-11T10:24:58.595Z,11.20
2023-05-11T10:27:25.982Z,10.23
2023-05-11T10:29:52.588Z,14.37
2023-05-11T10:32:20.245Z,13.63
2023-05-11T10:34:47.985Z,12.00
2023-05-11T10:37:15.569Z,11.37
2023-05-11T10:39:43.992Z,10.63
2023-05-11T10:42:37.147Z,12.83
2023-05-11T10:45:21.923Z,13.53
2023-05-11T10:48:06.058Z,12.13
2023-05-11T10:50:52.067Z,12.57
2023-05-11T10:53:48.942Z,14.10
2023-05-11T10:56:37.064Z,13.60
2023-05-11T10:59:43.113Z,13.53
2023-05-11T11:02:10.157Z,12.93
2023-05-11T11:04:51.479Z,15.23
2023-05-11T11:07:19.418Z,14.07
2023-05-11T11:09:56.407Z,13.70
2023-05-11T11:12:29.860Z,15.10
2023-05-11T11:15:06.063Z,15.60
2023-05-11T11:17:34.999Z,19.63
2023-05-11T11:20:03.931Z,19.17
2023-05-11T11:22:38.136Z,18.97
2023-05-11T11:25:09.052Z,19.17
2023-05-11T11:27:41.286Z,19.00
2023-05-11T11:30:15.600Z,17.27
2023-05-11T11:32:42.976Z,16.20
2023-05-11T11:35:42.337Z,17.03
2023-05-11T11:38:14.996Z,15.93
2023-05-11T11:40:53.037Z,15.97
2023-05-11T11:43:24.972Z,17.40
2023-05-11T11:45:51.302Z,17.00
2023-05-11T11:48:30.905Z,17.37
2023-05-11T11:51:02.595Z,17.23
2023-05-11T11:53:38.213Z,21.67
2023-05-11T11:56:07.279Z,22.37
2023-05-11T11:58:46.139Z,21.67
2023-05-11T12:01:15.284Z,19.20
2023-05-11T12:03:44.872Z,19.63
2023-05-11T12:06:12.010Z,19.23
2023-05-11T12:08:40.434Z,19.13
2023-05-11T12:11:07.689Z,19.27
2023-05-11T12:13:35.651Z,19.13
2023-05-11T12:16:09.308Z,17.07
2023-05-11T12:18:36.388Z,17.30
2023-05-11T12:21:02.958Z,17.27
2023-05-11T12:23:29.824Z,15.83
2023-05-11T12:26:06.264Z,15.20
2023-05-11T12:28:33.550Z,13.27
2023-05-11T12:31:00.775Z,13.57
2023-05-11T12:33:27.715Z,14.17
2023-05-11T12:35:56.468Z,14.70
2023-05-11T12:38:22.870Z,13.83
2023-05-11T12:40:51.364Z,14.87
2023-05-11T12:43:21.478Z,15.37
2023-05-11T12:45:48.593Z,13.83
2023-05-11T12:48:15.872Z,14.03
2023-05-11T12:50:44.352Z,14.03
2023-05-11T12:53:19.035Z,14.37
2023-05-11T12:55:57.573Z,15.40
2023-05-11T12:58:23.909Z,12.83
2023-05-11T13:00:54.625Z,12.93
2023-05-11T13:03:25.197Z,14.57
2023-05-11T13:05:52.372Z,14.43
2023-05-11T13:08:19.773Z,15.13
2023-05-11T13:10:47.873Z,15.53
2023-05-11T13:13:26.926Z,16.37
2023-05-11T13:15:53.446Z,14.93
2023-05-11T13:18:19.910Z,14.83
2023-05-11T13:20:46.428Z,16.53
2023-05-11T13:23:14.943Z,17.03
2023-05-11T13:25:53.700Z,15.10
2023-05-11T13:28:22.430Z,17.20
2023-05-11T13:30:51.060Z,16.33
2023-05-11T13:33:18.257Z,15.90
2023-05-11T13:35:45.505Z,16.03
2023-05-11T13:38:12.622Z,15.97
2023-05-11T13:40:39.423Z,10.20
2023-05-11T13:43:06.412Z,8.23
2023-05-11T13:45:32.755Z,7.17
2023-05-11T13:47:59.104Z,6.50
2023-05-11T13:50:26.181Z,5.57
2023-05-11T13:52:53.444Z,5.87
2023-05-11T13:55:20.907Z,5.40
2023-05-11T13:57:47.663Z,6.73
2023-05-11T14:00:15.025Z,8.27
2023-05-11T14:02:41.523Z,7.50
2023-05-11T14:05:08.619Z,6.27
2023-05-11T14:07:46.434Z,7.07
2023-05-11T14:10:15.209Z,8.03
2023-05-11T14:12:41.567Z,7.33
2023-05-11T14:15:08.685Z,7.37
2023-05-11T14:17:35.307Z,7.17
2023-05-11T14:20:01.801Z,7.13
2023-05-11T14:22:29.045Z,6.87
2023-05-11T14:24:56.071Z,6.10
2023-05-11T14:27:23.529Z,6.30
2023-05-11T14:29:52.042Z,6.97
2023-05-11T14:32:21.740Z,6.73
2023-05-11T14:34:48.631Z,7.13
2023-05-11T14:37:15.023Z,7.67
2023-05-11T14:39:41.510Z,6.77
2023-05-11T14:42:08.235Z,6.97
2023-05-11T14:44:34.664Z,6.40
2023-05-11T14:47:01.255Z,7.20
2023-05-11T14:49:27.674Z,7.13
2023-05-11T14:51:54.098Z,6.77
2023-05-11T14:54:20.439Z,7.13
2023-05-11T14:56:51.249Z,6.33
2023-05-11T14:59:17.607Z,6.90
2023-05-11T15:01:43.986Z,6.10
2023-05-11T15:04:10.500Z,6.17
2023-05-11T15:06:37.042Z,5.93
2023-05-11T15:09:04.179Z,6.13
2023-05-11T15:11:30.595Z,6.83
2023-05-11T15:13:56.899Z,7.07
2023-05-11T15:16:23.364Z,6.17
2023-05-11T15:18:49.839Z,6.23
2023-05-11T15:21:16.300Z,7.53
2023-05-11T15:23:42.621Z,7.83
2023-05-11T15:26:09.090Z,7.00
2023-05-11T15:28:35.497Z,7.37
2023-05-11T15:31:01.893Z,6.97
2023-05-11T15:33:28.294Z,6.57
2023-05-11T15:35:54.675Z,6.57
2023-05-11T15:38:21.360Z,7.87
2023-05-11T15:40:47.712Z,7.03
2023-05-11T15:43:14.574Z,7.30
2023-05-11T15:45:41.187Z,6.40
2023-05-11T15:48:07.740Z,7.10
2023-05-11T15:50:34.155Z,6.50
2023-05-11T15:53:01.020Z,6.83
2023-05-11T15:55:27.457Z,5.67
2023-05-11T15:57:53.820Z,5.10
2023-05-11T16:00:20.432Z,5.20
2023-05-11T16:02:48.789Z,4.90
2023-05-11T16:05:15.338Z,4.63
2023-05-11T16:07:41.677Z,4.57
2023-05-11T16:10:08.309Z,5.70
2023-05-11T16:12:34.663Z,5.10
2023-05-11T16:15:01.236Z,4.50
2023-05-11T16:17:27.641Z,4.97
2023-05-11T16:19:54.006Z,5.60
2023-05-11T16:22:23.615Z,5.13
2023-05-11T16:24:50.546Z,4.77
2023-05-11T16:27:17.057Z,4.43
2023-05-11T16:29:43.397Z,3.80
2023-05-11T16:32:09.753Z,3.60
2023-05-11T16:34:36.129Z,3.00
2023-05-11T16:37:02.555Z,3.60
2023-05-11T16:39:28.928Z,3.77
2023-05-11T16:41:55.339Z,3.23
2023-05-11T16:44:21.695Z,3.60
2023-05-11T16:46:49.037Z,4.03
2023-05-11T16:49:15.619Z,4.00
2023-05-11T16:51:43.218Z,4.20
2023-05-11T16:54:10.338Z,3.83
2023-05-11T16:56:36.746Z,4.10
2023-05-11T16:59:03.080Z,4.37
2023-05-11T17:01:29.458Z,4.00
2023-05-11T17:03:55.884Z,5.20
2023-05-11T17:06:23.827Z,5.13
2023-05-11T17:08:50.484Z,5.23
2023-05-11T17:11:17.061Z,5.33
2023-05-11T17:13:43.422Z,5.63
2023-05-11T17:16:09.794Z,5.67
2023-05-11T17:18:36.282Z,5.57
2023-05-11T17:21:02.667Z,5.93
2023-05-11T17:23:29.168Z,6.57
2023-05-11T17:25:55.558Z,5.53
2023-05-11T17:28:22.114Z,5.90
2023-05-11T17:30:56.926Z,5.70
2023-05-11T17:33:23.531Z,6.13
2023-05-11T17:35:50.626Z,6.63
2023-05-11T17:38:16.949Z,6.53
2023-05-11T17:40:44.240Z,5.23
2023-05-11T17:43:10.550Z,3.87
2023-05-11T17:45:36.975Z,3.90
2023-05-11T17:48:03.559Z,4.70
2023-05-11T17:50:29.989Z,4.13
2023-05-11T17:52:56.376Z,4.50
2023-05-11T17:55:22.704Z,4.70
2023-05-11T17:57:51.386Z,4.50
2023-05-11T18:00:18.218Z,5.00
2023-05-11T18:02:47.505Z,4.87
2023-05-11T18:05:15.689Z,5.10
2023-05-11T18:07:42.193Z,4.57
2023-05-11T18:10:10.768Z,4.47
2023-05-11T18:12:37.111Z,4.63
2023-05-11T18:15:03.913Z,4.10
2023-05-11T18:17:30.448Z,4.00
2023-05-11T18:19:56.897Z,4.27
2023-05-11T18:22:23.276Z,4.50
2023-05-11T18:24:49.685Z,4.40
2023-05-11T18:27:16.077Z,4.93
2023-05-11T18:29:43.213Z,5.27
2023-05-11T18:32:09.571Z,4.30
2023-05-11T18:34:36.006Z,4.43
2023-05-11T18:37:02.742Z,4.20
2023-05-11T18:39:29.251Z,4.53
2023-05-11T18:41:55.718Z,3.87
2023-05-11T18:44:22.662Z,4.00
2023-05-11T18:46:49.091Z,4.40
2023-05-11T18:49:15.460Z,3.77
2023-05-11T18:51:41.860Z,4.07
2023-05-11T18:54:08.578Z,3.83
2023-05-11T18:56:34.897Z,4.10
2023-05-11T18:59:01.288Z,3.90
2023-05-11T19:01:39.790Z,3.83
2023-05-11T19:04:13.938Z,4.23
2023-05-11T19:06:40.271Z,3.63
2023-05-11T19:09:06.858Z,3.73
2023-05-11T19:11:33.484Z,4.33
2023-05-11T19:14:00.108Z,4.67
2023-05-11T19:16:28.027Z,4.67
2023-05-11T19:18:56.702Z,5.00
2023-05-11T19:21:23.083Z,5.03
2023-05-11T19:23:49.486Z,6.20
2023-05-11T19:26:15.809Z,5.17
2023-05-11T19:28:42.194Z,6.70
2023-05-11T19:31:08.795Z,5.87
2023-05-11T19:33:35.216Z,5.37
2023-05-11T19:36:01.724Z,6.80
2023-05-11T19:38:28.351Z,5.87
2023-05-11T19:40:54.729Z,6.80
2023-05-11T19:43:22.716Z,6.93
2023-05-11T19:45:49.348Z,7.30
2023-05-11T19:48:16.236Z,8.20
2023-05-11T19:50:42.956Z,8.30
2023-05-11T19:53:09.349Z,7.03
2023-05-11T19:55:35.782Z,7.60
2023-05-11T19:58:02.561Z,7.67
2023-05-11T20:00:28.990Z,7.97
2023-05-11T20:02:56.956Z,7.87
2023-05-11T20:05:23.713Z,8.00
2023-05-11T20:07:50.115Z,8.07
2023-05-11T20:10:16.743Z,8.30
2023-05-11T20:12:43.339Z,8.87
2023-05-11T20:15:10.558Z,9.33
2023-05-11T20:17:37.111Z,9.23
2023-05-11T20:20:03.822Z,10.40
2023-05-11T20:22:31.344Z,10.23
2023-05-11T20:24:57.726Z,10.47
2023-05-11T20:27:24.374Z,10.30
2023-05-11T20:29:50.907Z,9.90
2023-05-11T20:32:18.309Z,11.07
2023-05-11T20:34:44.656Z,9.80
2023-05-11T20:37:11.062Z,10.20
2023-05-11T20:39:38.732Z,10.73
2023-05-11T20:42:05.237Z,10.23
2023-05-11T20:44:31.603Z,11.27
2023-05-11T20:46:57.963Z,11.63
2023-05-11T20:49:37.607Z,11.23
2023-05-11T20:52:05.267Z,11.33
2023-05-11T20:54:33.644Z,11.60
2023-05-11T20:57:01.305Z,11.53
2023-05-11T21:01:59.231Z,11.63
2023-05-11T21:04:25.744Z,12.10
2023-05-11T21:06:55.354Z,11.33
2023-05-11T21:09:21.735Z,12.03
2023-05-11T21:11:48.791Z,12.37
2023-05-11T21:14:15.564Z,12.90
2023-05-11T21:16:42.144Z,12.60
2023-05-11T21:19:08.588Z,12.67
2023-05-11T21:21:35.621Z,13.30
2023-05-11T21:24:01.973Z,14.10
2023-05-11T21:26:28.322Z,14.47
2023-05-11T21:28:54.691Z,13.93
2023-05-11T21:31:21.830Z,14.87
2023-05-11T21:33:50.531Z,14.77
2023-05-11T21:36:16.907Z,14.00
2023-05-11T21:38:43.275Z,14.90
2023-05-11T21:41:09.790Z,15.70
2023-05-11T21:43:36.880Z,15.23
2023-05-11T21:46:03.264Z,15.30
2023-05-11T21:48:29.822Z,13.43
2023-05-11T21:50:56.491Z,14.80
2023-05-11T21:53:23.764Z,15.03
2023-05-11T21:55:50.577Z,15.80
2023-05-11T21:58:17.149Z,15.83
2023-05-11T22:00:44.061Z,15.50
2023-05-11T22:03:10.546Z,14.73
2023-05-11T22:05:37.035Z,15.60
2023-05-11T22:08:14.083Z,15.33
2023-05-11T22:10:41.606Z,14.77
2023-05-11T22:13:08.020Z,14.53
2023-05-11T22:15:34.383Z,14.00
2023-05-11T22:18:00.947Z,14.70
2023-05-11T22:20:27.397Z,14.43
2023-05-11T22:22:53.708Z,14.90
2023-05-11T22:25:20.248Z,14.63
2023-05-11T22:27:46.681Z,14.23
2023-05-11T22:30:13.139Z,13.63
2023-05-11T22:32:39.486Z,14.90
2023-05-11T22:35:07.301Z,14.60
2023-05-11T22:37:33.883Z,13.23
2023-05-11T22:40:00.225Z,14.03
2023-05-11T22:42:27.055Z,14.13
2023-05-11T22:44:53.492Z,13.30
2023-05-11T22:47:19.829Z,14.10
2023-05-11T22:49:46.173Z,11.63
2023-05-11T22:52:13.082Z,12.67
2023-05-11T22:54:39.459Z,12.17
2023-05-11T22:57:06.312Z,10.80
2023-05-11T22:59:34.496Z,11.70
2023-05-11T23:02:03.117Z,9.10
2023-05-11T23:04:31.103Z,9.30
2023-05-11T23:06:58.554Z,8.77
2023-05-11T23:09:25.212Z,8.40
2023-05-11T23:11:51.576Z,8.50
2023-05-11T23:14:18.180Z,8.40
2023-05-11T23:16:44.544Z,7.67
2023-05-11T23:19:11.115Z,7.13
2023-05-11T23:21:37.438Z,6.97
2023-05-11T23:24:04.786Z,6.37
2023-05-11T23:26:31.105Z,7.30
2023-05-11T23:28:57.441Z,7.83
2023-05-11T23:31:23.786Z,9.37
2023-05-11T23:33:50.134Z,10.60
2023-05-11T23:36:16.957Z,10.47
2023-05-11T23:38:46.157Z,9.83
2023-05-11T23:41:12.551Z,10.10
2023-05-11T23:43:38.886Z,10.73
2023-05-11T23:46:05.264Z,10.00
2023-05-11T23:48:31.598Z,9.97
2023-05-11T23:50:57.956Z,9.97
2023-05-11T23:53:24.297Z,9.50
2023-05-11T23:55:50.624Z,9.93
2023-05-11T23:58:17.001Z,10.43
